createdAt,value
2023-03-25T00:01:17.173Z,98458.84
2023-03-25T00:03:51.132Z,98461.34
2023-03-25T00:06:18.710Z,98444.13
2023-03-25T00:08:46.158Z,98464.66
2023-03-25T00:11:13.060Z,98469.25
2023-03-25T00:13:41.283Z,98468.25
2023-03-25T00:16:10.456Z,98476.50
2023-03-25T00:18:38.066Z,98476.94
2023-03-25T00:21:11.027Z,98475.28
2023-03-25T00:23:40.254Z,98486.28
2023-03-25T00:26:08.395Z,98481.91
2023-03-25T00:28:37.804Z,98490.03
2023-03-25T00:31:12.582Z,98499.97
2023-03-25T00:33:41.977Z,98498.13
2023-03-25T00:36:10.009Z,98500.19
2023-03-25T00:38:38.213Z,98497.50
2023-03-25T00:41:25.784Z,98493.13
2023-03-25T00:43:56.190Z,98493.13
2023-03-25T00:46:26.930Z,98493.75
2023-03-25T00:48:54.247Z,98491.06
2023-03-25T00:51:22.951Z,98484.63
2023-03-25T00:54:00.537Z,98483.81
2023-03-25T00:56:28.455Z,98485.03
2023-03-25T00:58:56.779Z,98493.75
2023-03-25T01:01:27.647Z,98493.34
2023-03-25T01:04:00.443Z,98493.34
2023-03-25T01:06:36.058Z,98498.09
2023-03-25T01:09:06.686Z,98488.97
2023-03-25T01:11:35.241Z,98495.59
2023-03-25T01:14:05.273Z,98503.50
2023-03-25T01:16:32.607Z,98502.47
2023-03-25T01:18:59.554Z,98508.69
2023-03-25T01:21:26.812Z,98507.47
2023-03-25T01:23:53.846Z,98512.84
2023-03-25T01:26:21.090Z,98532.34
2023-03-25T01:28:48.066Z,98527.38
2023-03-25T01:31:16.591Z,98534.19
2023-03-25T01:33:43.850Z,98544.16
2023-03-25T01:36:13.369Z,98537.31
2023-03-25T01:38:41.788Z,98532.38
2023-03-25T01:41:10.323Z,98531.94
2023-03-25T01:43:37.457Z,98538.38
2023-03-25T01:46:04.534Z,98533.81
2023-03-25T01:48:41.111Z,98530.47
2023-03-25T01:51:18.561Z,98530.69
2023-03-25T01:53:46.022Z,98542.72
2023-03-25T01:56:19.048Z,98526.97
2023-03-25T01:58:46.113Z,98539.41
2023-03-25T02:01:14.591Z,98536.69
2023-03-25T02:03:46.747Z,98541.91
2023-03-25T02:06:23.052Z,98536.31
2023-03-25T02:08:53.081Z,98534.44
2023-03-25T02:11:20.036Z,98540.25
2023-03-25T02:13:47.174Z,98535.47
2023-03-25T02:16:51.950Z,98539.00
2023-03-25T02:20:16.410Z,98535.25
2023-03-25T02:22:47.901Z,98536.50
2023-03-25T02:25:50.250Z,98531.31
2023-03-25T02:28:47.495Z,98537.94
2023-03-25T02:31:39.241Z,98551.03
2023-03-25T02:34:30.183Z,98540.25
2023-03-25T02:37:34.628Z,98538.97
2023-03-25T02:40:16.829Z,98540.63
2023-03-25T02:42:53.774Z,98530.28
2023-03-25T02:45:32.657Z,98542.72
2023-03-25T02:48:06.758Z,98552.88
2023-03-25T02:50:41.944Z,98540.44
2023-03-25T02:53:15.947Z,98542.09
2023-03-25T02:55:45.680Z,98547.50
2023-03-25T02:58:18.302Z,98552.47
2023-03-25T03:00:46.524Z,98552.06
2023-03-25T03:03:13.727Z,98546.88
2023-03-25T03:05:45.200Z,98555.81
2023-03-25T03:08:52.224Z,98552.28
2023-03-25T03:11:51.861Z,98548.72
2023-03-25T03:14:43.364Z,98557.69
2023-03-25T03:17:44.612Z,98557.25
2023-03-25T03:20:20.540Z,98574.06
2023-03-25T03:23:03.030Z,98578.22
2023-03-25T03:25:49.751Z,98579.47
2023-03-25T03:28:48.259Z,98578.41
2023-03-25T03:31:48.722Z,98590.47
2023-03-25T03:34:47.335Z,98588.16
2023-03-25T03:37:19.984Z,98590.25
2023-03-25T03:39:49.443Z,98596.28
2023-03-25T03:42:26.367Z,98592.13
2023-03-25T03:45:02.075Z,98608.31
2023-03-25T03:47:35.699Z,98608.28
2023-03-25T03:50:15.673Z,98610.38
2023-03-25T03:53:22.899Z,98603.94
2023-03-25T03:56:22.559Z,98609.13
2023-03-25T03:58:58.719Z,98626.97
2023-03-25T04:02:01.114Z,98621.16
2023-03-25T04:04:28.544Z,98631.94
2023-03-25T04:07:18.768Z,98630.69
2023-03-25T04:10:03.069Z,98637.75
2023-03-25T04:12:38.669Z,98635.28
2023-03-25T04:15:07.432Z,98644.63
2023-03-25T04:17:35.089Z,98647.91
2023-03-25T04:20:09.237Z,98657.25
2023-03-25T04:22:38.864Z,98656.00
2023-03-25T04:25:07.543Z,98661.63
2023-03-25T04:27:38.031Z,98673.44
2023-03-25T04:30:09.488Z,98684.22
2023-03-25T04:32:36.513Z,98678.44
2023-03-25T04:35:03.927Z,98664.31
2023-03-25T04:37:34.423Z,98673.03
2023-03-25T04:40:01.450Z,98680.91
2023-03-25T04:42:33.339Z,98681.31
2023-03-25T04:45:00.697Z,98680.91
2023-03-25T04:47:28.300Z,98684.22
2023-03-25T04:49:55.281Z,98686.53
2023-03-25T04:52:22.608Z,98691.69
2023-03-25T04:54:49.526Z,98688.59
2023-03-25T04:57:16.899Z,98698.38
2023-03-25T04:59:44.267Z,98703.34
2023-03-25T05:02:13.789Z,98708.50
2023-03-25T05:04:47.930Z,98708.50
2023-03-25T05:07:16.772Z,98712.25
2023-03-25T05:09:43.943Z,98713.91
2023-03-25T05:12:11.718Z,98713.03
2023-03-25T05:14:39.075Z,98721.56
2023-03-25T05:17:06.041Z,98717.22
2023-03-25T05:19:35.404Z,98729.44
2023-03-25T05:22:04.846Z,98734.84
2023-03-25T05:24:31.891Z,98735.03
2023-03-25T05:27:02.697Z,98737.34
2023-03-25T05:29:34.283Z,98751.84
2023-03-25T05:32:01.329Z,98750.19
2023-03-25T05:34:30.360Z,98748.91
2023-03-25T05:36:57.628Z,98746.03
2023-03-25T05:39:24.649Z,98754.75
2023-03-25T05:41:55.865Z,98757.63
2023-03-25T05:44:23.103Z,98760.31
2023-03-25T05:46:50.000Z,98760.31
2023-03-25T05:49:17.331Z,98774.66
2023-03-25T05:51:45.295Z,98789.78
2023-03-25T05:54:12.325Z,98787.28
2023-03-25T05:56:40.238Z,98790.00
2023-03-25T05:59:08.639Z,98790.66
2023-03-25T06:01:38.026Z,98796.63
2023-03-25T06:04:05.555Z,98797.03
2023-03-25T06:06:34.580Z,98800.16
2023-03-25T06:09:03.043Z,98802.03
2023-03-25T06:11:30.427Z,98801.63
2023-03-25T06:13:57.620Z,98814.69
2023-03-25T06:16:30.302Z,98818.66
2023-03-25T06:19:01.714Z,98821.16
2023-03-25T06:21:33.346Z,98825.31
2023-03-25T06:24:04.455Z,98834.44
2023-03-25T06:26:33.029Z,98838.78
2023-03-25T06:29:00.164Z,98850.22
2023-03-25T06:31:27.698Z,98851.66
2023-03-25T06:33:56.478Z,98867.63
2023-03-25T06:36:25.783Z,98865.50
2023-03-25T06:38:53.883Z,98861.72
2023-03-25T06:41:22.067Z,98855.34
2023-03-25T06:43:49.861Z,98864.03
2023-03-25T06:46:17.107Z,98866.72
2023-03-25T06:48:44.296Z,98868.94
2023-03-25T06:51:11.290Z,98889.59
2023-03-25T06:53:38.540Z,98880.09
2023-03-25T06:56:06.549Z,98892.31
2023-03-25T06:58:36.186Z,98900.66
2023-03-25T07:01:07.821Z,98902.72
2023-03-25T07:03:37.072Z,98907.22
2023-03-25T07:06:06.036Z,98920.94
2023-03-25T07:08:34.015Z,98919.13
2023-03-25T07:11:07.635Z,98927.22
2023-03-25T07:13:35.920Z,98936.41
2023-03-25T07:16:03.473Z,98946.31
2023-03-25T07:18:31.106Z,98950.50
2023-03-25T07:20:59.016Z,98953.41
2023-03-25T07:23:26.372Z,98948.38
2023-03-25T07:25:53.684Z,98952.59
2023-03-25T07:28:20.931Z,98953.84
2023-03-25T07:30:48.033Z,98957.38
2023-03-25T07:33:15.662Z,98961.34
2023-03-25T07:35:42.624Z,98972.00
2023-03-25T07:38:10.269Z,98967.00
2023-03-25T07:40:37.942Z,98992.59
2023-03-25T07:43:05.495Z,98991.38
2023-03-25T07:45:43.979Z,98997.34
2023-03-25T07:48:19.451Z,99011.66
2023-03-25T07:50:46.460Z,99019.13
2023-03-25T07:53:13.380Z,99017.50
2023-03-25T07:55:40.418Z,99021.19
2023-03-25T07:58:07.574Z,99018.94
2023-03-25T08:00:34.560Z,99024.78
2023-03-25T08:03:01.718Z,99023.38
2023-03-25T08:05:29.152Z,99036.88
2023-03-25T08:07:56.195Z,99050.28
2023-03-25T08:10:23.401Z,99056.72
2023-03-25T08:12:53.638Z,99060.88
2023-03-25T08:15:24.672Z,99061.78
2023-03-25T08:17:52.676Z,99057.09
2023-03-25T08:20:19.960Z,99072.56
2023-03-25T08:22:47.691Z,99066.72
2023-03-25T08:25:14.894Z,99071.88
2023-03-25T08:27:42.089Z,99078.41
2023-03-25T08:30:10.628Z,99084.91
2023-03-25T08:32:39.171Z,99084.28
2023-03-25T08:35:07.309Z,99089.00
2023-03-25T08:37:38.054Z,99099.06
2023-03-25T08:40:10.238Z,99094.91
2023-03-25T08:42:38.577Z,99101.78
2023-03-25T08:45:09.364Z,99104.53
2023-03-25T08:47:36.414Z,99100.22
2023-03-25T08:50:04.231Z,99116.09
2023-03-25T08:52:31.546Z,99121.75
2023-03-25T08:54:58.489Z,99120.13
2023-03-25T08:57:26.162Z,99125.53
2023-03-25T08:59:53.321Z,99126.38
2023-03-25T09:02:20.737Z,99135.34
2023-03-25T09:04:50.860Z,99134.75
2023-03-25T09:07:20.095Z,99139.13
2023-03-25T09:09:47.370Z,99137.09
2023-03-25T09:12:14.383Z,99136.28
2023-03-25T09:14:41.391Z,99129.88
2023-03-25T09:17:10.319Z,99132.56
2023-03-25T09:19:38.363Z,99142.56
2023-03-25T09:22:06.638Z,99140.31
2023-03-25T09:24:34.487Z,99146.16
2023-03-25T09:27:02.925Z,99149.50
2023-03-25T09:29:30.000Z,99154.94
2023-03-25T09:31:58.588Z,99150.38
2023-03-25T09:34:27.249Z,99163.13
2023-03-25T09:36:55.632Z,99152.47
2023-03-25T09:39:22.848Z,99160.59
2023-03-25T09:42:14.369Z,99169.56
2023-03-25T09:44:56.769Z,99174.78
2023-03-25T09:47:26.170Z,99174.56
2023-03-25T09:50:01.322Z,99180.41
2023-03-25T09:52:37.135Z,99176.00
2023-03-25T09:55:11.782Z,99177.06
2023-03-25T09:57:49.358Z,99180.38
2023-03-25T10:00:24.906Z,99184.69
2023-03-25T10:03:22.204Z,99190.69
2023-03-25T10:06:06.748Z,99196.34
2023-03-25T10:08:53.088Z,99203.63
2023-03-25T10:11:26.033Z,99210.50
2023-03-25T10:14:24.742Z,99215.47
2023-03-25T10:17:16.117Z,99210.66
2023-03-25T10:20:11.814Z,99229.66
2023-03-25T10:23:03.124Z,99233.59
2023-03-25T10:25:35.128Z,99233.13
2023-03-25T10:28:03.695Z,99238.31
2023-03-25T10:30:44.462Z,99239.13
2023-03-25T10:33:31.792Z,99243.06
2023-03-25T10:36:02.065Z,99245.19
2023-03-25T10:38:32.577Z,99263.78
2023-03-25T10:41:31.698Z,99264.84
2023-03-25T10:43:58.756Z,99267.34
2023-03-25T10:46:37.592Z,99274.94
2023-03-25T10:49:04.812Z,99283.72
2023-03-25T10:51:36.468Z,99277.88
2023-03-25T10:54:04.420Z,99279.97
2023-03-25T10:56:52.280Z,99272.25
2023-03-25T10:59:37.816Z,99280.81
2023-03-25T11:02:17.853Z,99277.03
2023-03-25T11:04:49.203Z,99283.63
2023-03-25T11:07:22.627Z,99292.38
2023-03-25T11:09:52.004Z,99296.25
2023-03-25T11:12:33.277Z,99289.94
2023-03-25T11:15:06.996Z,99294.69
2023-03-25T11:17:34.707Z,99306.69
2023-03-25T11:20:11.285Z,99296.06
2023-03-25T11:22:39.096Z,99301.84
2023-03-25T11:25:30.198Z,99299.00
2023-03-25T11:28:02.812Z,99300.59
2023-03-25T11:30:29.746Z,99302.88
2023-03-25T11:33:13.361Z,99319.03
2023-03-25T11:35:46.960Z,99330.53
2023-03-25T11:38:23.432Z,99350.25
2023-03-25T11:40:55.506Z,99354.38
2023-03-25T11:43:25.975Z,99363.19
2023-03-25T11:45:53.911Z,99344.41
2023-03-25T11:48:24.638Z,99349.44
2023-03-25T11:51:02.413Z,99344.22
2023-03-25T11:53:32.965Z,99370.53
2023-03-25T11:56:04.971Z,99372.66
2023-03-25T11:58:37.264Z,99364.31
2023-03-25T12:01:22.846Z,99363.69
2023-03-25T12:03:49.887Z,99360.97
2023-03-25T12:06:21.924Z,99354.91
2023-03-25T12:08:59.619Z,99351.56
2023-03-25T12:11:33.225Z,99355.31
2023-03-25T12:14:40.170Z,99348.00
2023-03-25T12:18:11.867Z,99336.56
2023-03-25T12:21:20.451Z,99348.88
2023-03-25T12:24:15.941Z,99349.47
2023-03-25T12:26:51.980Z,99342.38
2023-03-25T12:29:54.817Z,99347.59
2023-03-25T12:32:42.045Z,99353.84
2023-03-25T12:35:22.854Z,99353.44
2023-03-25T12:38:24.571Z,99350.91
2023-03-25T12:41:07.974Z,99362.16
2023-03-25T12:43:59.287Z,99365.84
2023-03-25T12:46:47.534Z,99378.97
2023-03-25T12:49:43.060Z,99365.88
2023-03-25T12:52:28.956Z,99371.22
2023-03-25T12:55:23.750Z,99374.38
2023-03-25T12:58:20.071Z,99382.31
2023-03-25T13:01:30.467Z,99382.94
2023-03-25T13:04:34.960Z,99389.50
2023-03-25T13:07:17.363Z,99385.81
2023-03-25T13:09:52.448Z,99389.22
2023-03-25T13:12:42.979Z,99389.88
2023-03-25T13:15:37.508Z,99391.69
2023-03-25T13:18:21.246Z,99392.72
2023-03-25T13:21:00.518Z,99399.56
2023-03-25T13:23:29.879Z,99398.69
2023-03-25T13:26:06.688Z,99395.75
2023-03-25T13:28:41.783Z,99401.59
2023-03-25T13:31:15.802Z,99400.94
2023-03-25T13:33:49.312Z,99394.00
2023-03-25T13:36:38.379Z,99403.59
2023-03-25T13:39:19.452Z,99407.78
2023-03-25T13:42:11.412Z,99405.25
2023-03-25T13:44:41.790Z,99413.13
2023-03-25T13:47:26.456Z,99409.78
2023-03-25T13:50:02.983Z,99427.31
2023-03-25T13:52:39.851Z,99416.03
2023-03-25T13:55:22.359Z,99418.41
2023-03-25T13:58:14.522Z,99419.84
2023-03-25T14:01:02.405Z,99413.56
2023-03-25T14:03:47.626Z,99417.50
2023-03-25T14:07:21.477Z,99423.44
2023-03-25T14:10:25.868Z,99433.00
2023-03-25T14:13:49.371Z,99419.97
2023-03-25T14:16:23.081Z,99430.09
2023-03-25T14:19:00.840Z,99434.09
2023-03-25T14:21:50.813Z,99436.41
2023-03-25T14:24:32.302Z,99439.00
2023-03-25T14:27:31.514Z,99436.09
2023-03-25T14:30:06.371Z,99440.00
2023-03-25T14:32:41.995Z,99448.56
2023-03-25T14:35:34.599Z,99447.06
2023-03-25T14:38:08.086Z,99445.19
2023-03-25T14:40:59.501Z,99449.13
2023-03-25T14:43:47.903Z,99444.59
2023-03-25T14:46:22.102Z,99446.88
2023-03-25T14:48:50.369Z,99444.91
2023-03-25T14:51:26.492Z,99438.25
2023-03-25T14:54:17.078Z,99437.75
2023-03-25T14:57:04.616Z,99444.31
2023-03-25T14:59:39.859Z,99437.63
2023-03-25T15:02:29.892Z,99448.09
2023-03-25T15:05:02.464Z,99445.56
2023-03-25T15:07:50.729Z,99449.38
2023-03-25T15:10:36.852Z,99454.13
2023-03-25T15:13:09.516Z,99451.22
2023-03-25T15:15:45.709Z,99450.19
2023-03-25T15:18:36.488Z,99459.59
2023-03-25T15:21:14.429Z,99452.50
2023-03-25T15:23:52.108Z,99461.16
2023-03-25T15:26:42.436Z,99455.69
2023-03-25T15:29:27.612Z,99458.91
2023-03-25T15:32:31.566Z,99460.63
2023-03-25T15:35:32.507Z,99461.25
2023-03-25T15:38:28.659Z,99449.75
2023-03-25T15:41:56.156Z,99449.72
2023-03-25T15:45:00.742Z,99446.41
2023-03-25T15:47:43.031Z,99452.22
2023-03-25T15:50:28.899Z,99452.84
2023-03-25T15:53:41.896Z,99458.50
2023-03-25T15:56:17.729Z,99452.91
2023-03-25T15:59:05.881Z,99454.56
2023-03-25T16:01:36.271Z,99455.03
2023-03-25T16:04:34.987Z,99449.00
2023-03-25T16:07:06.014Z,99446.34
2023-03-25T16:09:39.207Z,99443.00
2023-03-25T16:12:10.621Z,99445.13
2023-03-25T16:14:39.581Z,99449.78
2023-03-25T16:17:09.080Z,99439.31
2023-03-25T16:19:45.961Z,99442.03
2023-03-25T16:22:27.850Z,99447.88
2023-03-25T16:24:58.144Z,99449.78
2023-03-25T16:27:52.965Z,99461.97
2023-03-25T16:30:24.847Z,99454.44
2023-03-25T16:32:52.655Z,99460.28
2023-03-25T16:35:27.342Z,99457.38
2023-03-25T16:37:58.643Z,99458.63
2023-03-25T16:40:33.796Z,99456.53
2023-03-25T16:43:12.325Z,99451.94
2023-03-25T16:45:40.586Z,99454.03
2023-03-25T16:48:19.980Z,99457.56
2023-03-25T16:50:46.973Z,99455.91
2023-03-25T16:53:16.748Z,99450.94
2023-03-25T16:55:57.893Z,99459.91
2023-03-25T16:58:28.069Z,99453.63
2023-03-25T17:00:56.890Z,99459.28
2023-03-25T17:03:48.724Z,99456.38
2023-03-25T17:06:28.729Z,99447.41
2023-03-25T17:08:59.167Z,99457.84
2023-03-25T17:11:32.596Z,99462.00
2023-03-25T17:14:08.803Z,99459.28
2023-03-25T17:16:38.341Z,99459.50
2023-03-25T17:19:05.557Z,99456.56
2023-03-25T17:21:35.344Z,99453.44
2023-03-25T17:24:20.884Z,99456.78
2023-03-25T17:27:05.809Z,99448.63
2023-03-25T17:29:33.082Z,99451.94
2023-03-25T17:32:00.446Z,99445.66
2023-03-25T17:34:28.070Z,99449.84
2023-03-25T17:37:01.426Z,99453.16
2023-03-25T17:39:32.616Z,99456.06
2023-03-25T17:42:07.325Z,99451.47
2023-03-25T17:44:37.678Z,99459.78
2023-03-25T17:47:06.429Z,99460.63
2023-03-25T17:49:34.285Z,99455.97
2023-03-25T17:52:01.544Z,99456.81
2023-03-25T17:54:28.842Z,99463.91
2023-03-25T17:56:56.608Z,99458.88
2023-03-25T17:59:28.279Z,99454.66
2023-03-25T18:01:55.331Z,99455.28
2023-03-25T18:04:23.153Z,99454.22
2023-03-25T18:06:51.741Z,99451.91
2023-03-25T18:09:25.832Z,99457.72
2023-03-25T18:11:56.566Z,99454.16
2023-03-25T18:14:25.528Z,99453.25
2023-03-25T18:16:57.772Z,99448.66
2023-03-25T18:19:31.946Z,99460.69
2023-03-25T18:22:09.811Z,99451.28
2023-03-25T18:24:50.145Z,99447.50
2023-03-25T18:27:17.945Z,99442.06
2023-03-25T18:29:45.021Z,99437.22
2023-03-25T18:32:12.023Z,99434.50
2023-03-25T18:34:39.068Z,99439.66
2023-03-25T18:37:05.953Z,99439.59
2023-03-25T18:39:33.019Z,99429.75
2023-03-25T18:42:00.323Z,99434.94
2023-03-25T18:44:28.723Z,99436.13
2023-03-25T18:46:55.889Z,99441.47
2023-03-25T18:49:23.142Z,99445.16
2023-03-25T18:51:51.102Z,99436.31
2023-03-25T18:54:18.389Z,99431.69
2023-03-25T18:56:46.105Z,99427.91
2023-03-25T18:59:22.187Z,99431.56
2023-03-25T19:01:49.134Z,99420.72
2023-03-25T19:04:16.590Z,99430.63
2023-03-25T19:06:44.234Z,99422.59
2023-03-25T19:09:22.937Z,99418.56
2023-03-25T19:11:49.958Z,99428.66
2023-03-25T19:14:16.843Z,99431.94
2023-03-25T19:16:57.296Z,99435.75
2023-03-25T19:19:28.944Z,99435.66
2023-03-25T19:21:55.869Z,99439.47
2023-03-25T19:24:23.131Z,99437.34
2023-03-25T19:26:50.064Z,99444.50
2023-03-25T19:29:16.986Z,99441.94
2023-03-25T19:31:44.303Z,99447.03
2023-03-25T19:34:11.323Z,99441.16
2023-03-25T19:36:38.317Z,99448.53
2023-03-25T19:39:06.124Z,99441.81
2023-03-25T19:41:35.251Z,99438.00
2023-03-25T19:44:02.237Z,99444.97
2023-03-25T19:46:31.972Z,99446.38
2023-03-25T19:48:58.919Z,99448.59
2023-03-25T19:51:25.817Z,99438.38
2023-03-25T19:53:52.756Z,99437.53
2023-03-25T19:56:19.614Z,99439.28
2023-03-25T19:58:46.966Z,99437.13
2023-03-25T20:01:13.932Z,99440.03
2023-03-25T20:03:41.541Z,99445.31
2023-03-25T20:06:09.350Z,99441.31
2023-03-25T20:08:36.824Z,99433.31
2023-03-25T20:11:12.378Z,99437.34
2023-03-25T20:13:39.852Z,99449.53
2023-03-25T20:16:07.756Z,99447.22
2023-03-25T20:18:34.889Z,99459.16
2023-03-25T20:21:01.826Z,99449.91
2023-03-25T20:23:28.765Z,99443.66
2023-03-25T20:25:55.701Z,99447.97
2023-03-25T20:28:23.147Z,99444.09
2023-03-25T20:30:50.257Z,99444.66
2023-03-25T20:33:17.575Z,99439.56
2023-03-25T20:35:45.338Z,99430.72
2023-03-25T20:38:12.885Z,99435.56
2023-03-25T20:40:44.707Z,99431.94
2023-03-25T20:43:14.947Z,99436.22
2023-03-25T20:45:43.293Z,99438.56
2023-03-25T20:48:10.409Z,99432.81
2023-03-25T20:50:37.444Z,99429.72
2023-03-25T20:53:05.988Z,99430.38
2023-03-25T20:55:33.217Z,99422.56
2023-03-25T20:58:01.058Z,99425.56
2023-03-25T21:00:28.112Z,99421.81
2023-03-25T21:02:56.090Z,99431.97
2023-03-25T21:05:23.394Z,99432.44
2023-03-25T21:07:51.571Z,99424.16
2023-03-25T21:10:20.518Z,99427.38
2023-03-25T21:12:48.512Z,99417.81
2023-03-25T21:15:16.058Z,99416.59
2023-03-25T21:17:44.643Z,99412.59
2023-03-25T21:20:12.735Z,99407.38
2023-03-25T21:22:45.475Z,99404.91
2023-03-25T21:25:15.077Z,99402.38
2023-03-25T21:27:45.579Z,99398.63
2023-03-25T21:30:13.768Z,99399.97
2023-03-25T21:32:42.157Z,99402.84
2023-03-25T21:35:09.895Z,99398.28
2023-03-25T21:37:39.985Z,99395.59
2023-03-25T21:40:11.187Z,99394.56
2023-03-25T21:42:41.620Z,99389.16
2023-03-25T21:45:11.942Z,99384.59
2023-03-25T21:47:39.606Z,99384.78
2023-03-25T21:50:10.621Z,99393.72
2023-03-25T21:52:51.686Z,99391.19
2023-03-25T21:55:19.889Z,99387.47
2023-03-25T21:57:47.945Z,99383.78
2023-03-25T22:00:18.470Z,99377.69
2023-03-25T22:02:47.475Z,99370.66
2023-03-25T22:05:16.887Z,99372.41
2023-03-25T22:07:43.871Z,99366.72
2023-03-25T22:10:11.640Z,99368.53
2023-03-25T22:12:38.757Z,99368.88
2023-03-25T22:15:06.750Z,99369.25
2023-03-25T22:17:33.830Z,99367.31
2023-03-25T22:20:00.799Z,99359.31
2023-03-25T22:22:27.824Z,99359.66
2023-03-25T22:24:54.770Z,99351.94
2023-03-25T22:27:22.164Z,99343.59
2023-03-25T22:29:49.134Z,99335.22
2023-03-25T22:32:16.637Z,99342.00
2023-03-25T22:34:43.596Z,99343.38
2023-03-25T22:37:10.552Z,99336.69
2023-03-25T22:39:39.208Z,99336.00
2023-03-25T22:42:06.929Z,99343.44
2023-03-25T22:44:34.133Z,99335.00
2023-03-25T22:47:01.315Z,99329.25
2023-03-25T22:49:28.503Z,99322.47
2023-03-25T22:51:55.968Z,99317.16
2023-03-25T22:54:23.340Z,99312.41
2023-03-25T22:56:50.617Z,99313.53
2023-03-25T22:59:17.554Z,99306.78
2023-03-25T23:01:44.747Z,99315.50
2023-03-25T23:04:11.858Z,99311.41
2023-03-25T23:06:39.160Z,99307.50
2023-03-25T23:09:08.710Z,99301.56
2023-03-25T23:11:37.767Z,99304.50
2023-03-25T23:14:09.110Z,99297.47
2023-03-25T23:16:36.756Z,99292.34
2023-03-25T23:19:06.403Z,99296.34
2023-03-25T23:21:34.489Z,99278.75
2023-03-25T23:24:04.172Z,99278.75
2023-03-25T23:26:39.564Z,99280.84
2023-03-25T23:29:11.854Z,99272.78
2023-03-25T23:31:42.647Z,99269.06
2023-03-25T23:34:15.663Z,99271.81
2023-03-25T23:36:45.641Z,99267.47
2023-03-25T23:39:20.550Z,99263.72
2023-03-25T23:41:47.518Z,99259.66
2023-03-25T23:44:14.542Z,99251.56
2023-03-25T23:46:42.323Z,99244.66
2023-03-25T23:49:10.950Z,99240.53
2023-03-25T23:51:40.972Z,99243.06
2023-03-25T23:54:11.761Z,99232.44
2023-03-25T23:56:40.591Z,99242.03
2023-03-25T23:59:07.902Z,99237.66
